createdAt,value
2018-03-06T00:13:42.074Z,22.08
2018-03-06T00:16:09.561Z,23.43
2018-03-06T00:18:37.068Z,28.80
2018-03-06T00:21:04.552Z,25.50
2018-03-06T00:23:32.053Z,27.20
2018-03-06T00:25:59.533Z,27.43
2018-03-06T00:28:28.049Z,28.50
2018-03-06T00:30:55.533Z,30.70
2018-03-06T00:33:23.064Z,27.40
2018-03-06T00:35:50.539Z,33.17
2018-03-06T00:38:18.049Z,34.17
2018-03-06T00:40:46.288Z,35.50
2018-03-06T00:43:13.761Z,30.37
2018-03-06T00:45:41.245Z,33.93
2018-03-06T00:48:08.712Z,34.73
2018-03-06T00:50:36.197Z,40.50
2018-03-06T00:53:03.687Z,38.37
2018-03-06T00:55:32.693Z,35.47
2018-03-06T00:58:00.934Z,39.27
2018-03-06T01:00:28.441Z,32.97
2018-03-06T01:02:55.910Z,38.30
2018-03-06T01:05:23.398Z,32.57
2018-03-06T01:07:50.868Z,36.37
2018-03-06T01:10:18.457Z,38.83
2018-03-06T01:12:46.697Z,36.70
2018-03-06T01:15:14.196Z,34.63
2018-03-06T01:17:42.428Z,35.53
2018-03-06T01:20:09.918Z,35.67
2018-03-06T01:22:37.388Z,32.47
2018-03-06T01:25:05.644Z,33.00
2018-03-06T01:27:34.621Z,33.67
2018-03-06T01:30:02.128Z,37.13
2018-03-06T01:32:29.610Z,37.97
2018-03-06T01:34:57.113Z,35.10
2018-03-06T01:37:24.597Z,34.27
2018-03-06T01:39:52.181Z,33.43
2018-03-06T01:42:19.660Z,37.03
2018-03-06T01:44:47.149Z,36.13
2018-03-06T01:47:15.428Z,34.13
2018-03-06T01:49:43.692Z,43.13
2018-03-06T01:52:11.169Z,40.53
2018-03-06T01:54:39.432Z,35.90
2018-03-06T01:57:06.913Z,40.00
2018-03-06T01:59:34.408Z,37.60
2018-03-06T02:02:01.881Z,35.13
2018-03-06T02:04:29.380Z,36.77
2018-03-06T02:06:57.622Z,44.30
2018-03-06T02:09:25.880Z,38.50
2018-03-06T02:11:53.361Z,38.47
2018-03-06T02:14:21.707Z,42.60
2018-03-06T02:16:49.213Z,40.60
2018-03-06T02:19:17.469Z,52.00
2018-03-06T02:21:44.942Z,47.37
2018-03-06T02:24:12.437Z,44.73
2018-03-06T02:26:39.908Z,43.23
2018-03-06T02:29:07.404Z,51.67
2018-03-06T02:31:34.886Z,50.50
2018-03-06T02:34:03.162Z,48.37
2018-03-06T02:36:31.409Z,47.23
2018-03-06T02:38:58.915Z,51.40
2018-03-06T02:41:26.383Z,44.77
2018-03-06T02:43:53.874Z,53.10
2018-03-06T02:46:21.345Z,49.73
2018-03-06T02:48:50.357Z,50.63
2018-03-06T02:51:18.591Z,52.97
2018-03-06T02:53:46.065Z,48.17
2018-03-06T02:56:13.566Z,52.10
2018-03-06T02:58:41.162Z,50.13
2018-03-06T03:01:09.429Z,54.23
2018-03-06T03:03:36.919Z,57.20
2018-03-06T03:06:04.421Z,56.30
2018-03-06T03:08:31.895Z,59.57
2018-03-06T03:10:59.393Z,53.93
2018-03-06T03:13:26.968Z,55.13
2018-03-06T03:15:54.468Z,50.67
2018-03-06T03:18:21.941Z,56.60
2018-03-06T03:20:50.206Z,60.70
2018-03-06T03:23:17.768Z,51.83
2018-03-06T03:25:45.269Z,55.97
2018-03-06T03:28:12.736Z,55.63
2018-03-06T03:30:40.229Z,54.73
2018-03-06T03:33:07.712Z,51.97
2018-03-06T03:35:35.964Z,52.80
2018-03-06T03:38:03.449Z,56.87
2018-03-06T03:40:31.719Z,54.87
2018-03-06T03:42:59.968Z,58.33
2018-03-06T03:45:28.274Z,57.07
2018-03-06T03:47:56.513Z,58.97
2018-03-06T03:50:24.008Z,54.57
2018-03-06T03:52:52.253Z,64.33
2018-03-06T03:55:19.748Z,63.87
2018-03-06T03:57:47.332Z,57.03
2018-03-06T04:00:14.827Z,57.13
2018-03-06T04:02:42.300Z,58.17
2018-03-06T04:05:09.812Z,59.77
2018-03-06T04:07:37.344Z,56.03
2018-03-06T04:10:04.836Z,62.23
2018-03-06T04:12:32.308Z,60.10
2018-03-06T04:14:59.801Z,58.97
2018-03-06T04:17:28.050Z,60.47
2018-03-06T04:19:55.539Z,59.37
2018-03-06T04:22:23.776Z,61.03
2018-03-06T04:24:51.273Z,61.23
2018-03-06T04:27:19.505Z,66.73
2018-03-06T04:29:47.004Z,59.13
2018-03-06T04:32:15.245Z,68.57
2018-03-06T04:34:42.730Z,64.83
2018-03-06T04:37:10.210Z,70.43
2018-03-06T04:39:37.692Z,61.27
2018-03-06T04:42:05.175Z,58.77
2018-03-06T04:44:32.669Z,68.90
2018-03-06T04:47:00.901Z,64.57
2018-03-06T04:49:28.434Z,61.63
2018-03-06T04:51:55.912Z,64.40
2018-03-06T04:54:23.413Z,64.30
2018-03-06T04:56:51.644Z,66.00
2018-03-06T04:59:19.141Z,63.07
2018-03-06T05:01:47.372Z,63.63
2018-03-06T05:04:14.846Z,66.40
2018-03-06T05:06:42.341Z,66.37
2018-03-06T05:09:10.588Z,64.10
2018-03-06T05:11:38.093Z,65.17
2018-03-06T05:14:05.565Z,65.97
2018-03-06T05:16:33.053Z,61.10
2018-03-06T05:19:00.516Z,71.30
2018-03-06T05:21:28.013Z,66.37
2018-03-06T05:23:55.477Z,67.50
2018-03-06T05:26:22.964Z,58.70
2018-03-06T05:28:50.449Z,66.37
2018-03-06T05:31:17.966Z,62.60
2018-03-06T05:33:45.448Z,68.57
2018-03-06T05:36:12.952Z,74.60
2018-03-06T05:38:40.424Z,66.17
2018-03-06T05:41:07.920Z,66.43
2018-03-06T05:43:35.397Z,73.97
2018-03-06T05:46:02.883Z,64.43
2018-03-06T05:48:30.416Z,66.97
2018-03-06T05:50:57.911Z,64.53
2018-03-06T05:53:25.380Z,73.53
2018-03-06T05:55:52.872Z,71.40
2018-03-06T05:58:20.357Z,71.33
2018-03-06T06:00:48.624Z,73.10
2018-03-06T06:03:16.113Z,72.63
2018-03-06T06:05:43.605Z,68.33
2018-03-06T06:08:11.095Z,71.13
2018-03-06T06:10:38.603Z,80.57
2018-03-06T06:13:06.076Z,73.50
2018-03-06T06:15:33.590Z,70.10
2018-03-06T06:18:01.817Z,77.03
2018-03-06T06:20:29.306Z,73.73
2018-03-06T06:22:56.769Z,75.97
2018-03-06T06:25:25.029Z,71.60
2018-03-06T06:27:52.493Z,71.87
2018-03-06T06:30:19.991Z,74.00
2018-03-06T06:32:47.467Z,78.67
2018-03-06T06:35:14.940Z,74.43
2018-03-06T06:37:42.424Z,74.87
2018-03-06T06:40:10.722Z,72.63
2018-03-06T06:42:38.953Z,73.93
2018-03-06T06:45:06.433Z,73.53
2018-03-06T06:47:33.904Z,75.10
2018-03-06T06:50:02.151Z,78.53
2018-03-06T06:52:29.617Z,84.33
2018-03-06T06:54:57.116Z,81.67
2018-03-06T06:57:24.596Z,85.43
2018-03-06T06:59:52.058Z,79.17
2018-03-06T07:02:19.539Z,88.33
2018-03-06T07:04:47.010Z,79.03
2018-03-06T07:07:14.492Z,88.87
2018-03-06T07:09:42.760Z,93.00
2018-03-06T07:12:11.001Z,93.53
2018-03-06T07:14:38.466Z,97.03
2018-03-06T07:17:05.948Z,92.57
2018-03-06T07:19:33.436Z,97.53
2018-03-06T07:22:00.912Z,94.93
2018-03-06T07:24:29.154Z,85.83
2018-03-06T07:26:57.409Z,86.10
2018-03-06T07:29:24.881Z,86.57
2018-03-06T07:31:52.398Z,90.20
2018-03-06T07:34:20.612Z,82.33
2018-03-06T07:36:48.095Z,74.77
2018-03-06T07:39:15.558Z,83.73
2018-03-06T07:41:43.819Z,79.90
2018-03-06T07:44:11.388Z,78.50
2018-03-06T07:46:38.872Z,84.60
2018-03-06T07:49:06.345Z,81.53
2018-03-06T07:51:33.828Z,86.27
2018-03-06T07:54:01.297Z,79.97
2018-03-06T07:56:28.768Z,89.17
2018-03-06T07:58:56.234Z,82.43
2018-03-06T08:01:24.489Z,84.60
2018-03-06T08:03:51.982Z,97.07
2018-03-06T08:06:20.221Z,93.80
2018-03-06T08:08:47.729Z,85.77
2018-03-06T08:11:15.200Z,91.10
2018-03-06T08:13:42.655Z,87.20
2018-03-06T08:16:10.173Z,86.50
2018-03-06T08:18:37.625Z,98.20
2018-03-06T08:21:05.108Z,86.63
2018-03-06T08:23:32.584Z,87.27
2018-03-06T08:26:00.076Z,93.50
2018-03-06T08:28:27.532Z,96.90
2018-03-06T08:30:55.007Z,84.17
2018-03-06T08:33:22.464Z,93.47
2018-03-06T08:35:49.952Z,82.80
2018-03-06T08:38:17.445Z,89.83
2018-03-06T08:40:44.884Z,97.50
2018-03-06T08:43:13.121Z,90.33
2018-03-06T08:45:40.597Z,96.80
2018-03-06T08:48:08.062Z,96.93
2018-03-06T08:50:35.547Z,90.33
2018-03-06T08:53:03.779Z,90.27
2018-03-06T08:55:31.260Z,89.23
2018-03-06T08:57:58.736Z,81.57
2018-03-06T09:00:26.955Z,85.50
2018-03-06T09:02:54.452Z,92.83
2018-03-06T09:05:22.698Z,91.60
2018-03-06T09:07:50.180Z,82.80
2018-03-06T09:10:17.636Z,91.93
2018-03-06T09:12:45.885Z,92.93
2018-03-06T09:15:13.360Z,102.67
2018-03-06T09:17:41.175Z,99.40
2018-03-06T09:20:08.682Z,87.63
2018-03-06T09:22:36.926Z,84.63
2018-03-06T09:25:04.440Z,90.47
2018-03-06T09:27:31.927Z,92.23
2018-03-06T09:29:59.384Z,84.50
2018-03-06T09:32:26.862Z,89.60
2018-03-06T09:34:54.342Z,91.10
2018-03-06T09:37:22.580Z,91.23
2018-03-06T09:39:50.063Z,86.93
2018-03-06T09:42:17.536Z,94.47
2018-03-06T09:44:45.795Z,88.20
2018-03-06T09:47:13.496Z,94.70
2018-03-06T09:49:41.005Z,89.97
2018-03-06T09:52:08.495Z,88.00
2018-03-06T09:54:36.078Z,87.20
2018-03-06T09:57:03.556Z,92.33
2018-03-06T09:59:31.038Z,94.07
2018-03-06T10:01:58.520Z,89.57
2018-03-06T10:04:26.783Z,90.53
2018-03-06T10:06:55.043Z,87.83
2018-03-06T10:09:22.521Z,92.60
2018-03-06T10:11:50.775Z,95.17
2018-03-06T10:14:18.237Z,91.00
2018-03-06T10:16:45.746Z,93.97
2018-03-06T10:19:13.212Z,95.43
2018-03-06T10:21:40.698Z,82.83
2018-03-06T10:24:08.170Z,81.97
2018-03-06T10:26:35.662Z,92.43
2018-03-06T10:29:03.145Z,89.93
2018-03-06T10:31:31.394Z,90.33
2018-03-06T10:33:58.873Z,89.43
2018-03-06T10:36:26.399Z,100.40
2018-03-06T10:38:54.617Z,93.53
2018-03-06T10:41:22.112Z,98.33
2018-03-06T10:43:50.376Z,84.60
2018-03-06T10:46:18.653Z,88.17
2018-03-06T10:48:46.136Z,95.77
2018-03-06T10:51:14.618Z,94.37
2018-03-06T10:53:42.857Z,99.80
2018-03-06T10:56:10.377Z,89.20
2018-03-06T10:58:37.859Z,94.97
2018-03-06T11:01:05.332Z,92.80
2018-03-06T11:03:32.902Z,91.63
2018-03-06T11:06:00.370Z,90.87
2018-03-06T11:08:28.610Z,98.53
2018-03-06T11:10:56.079Z,87.87
2018-03-06T11:13:23.562Z,99.85
2018-03-06T11:15:51.779Z,90.23
2018-03-06T11:18:19.263Z,91.37
2018-03-06T11:20:46.741Z,92.00
2018-03-06T11:23:14.223Z,97.57
2018-03-06T11:25:41.694Z,98.57
2018-03-06T11:28:09.177Z,96.03
2018-03-06T11:30:36.635Z,97.90
2018-03-06T11:33:04.118Z,86.63
2018-03-06T11:35:31.587Z,94.23
2018-03-06T11:37:59.086Z,89.27
2018-03-06T11:40:26.544Z,90.63
2018-03-06T11:42:54.041Z,88.43
2018-03-06T11:45:21.516Z,84.13
2018-03-06T11:47:49.766Z,88.67
2018-03-06T11:50:17.220Z,88.57
2018-03-06T11:52:44.743Z,86.00
2018-03-06T11:55:12.200Z,86.30
2018-03-06T11:57:39.673Z,84.27
2018-03-06T12:00:07.133Z,87.23
2018-03-06T12:02:34.629Z,83.87
2018-03-06T12:05:02.201Z,86.30
2018-03-06T12:07:30.462Z,83.90
2018-03-06T12:09:57.942Z,80.90
2018-03-06T12:12:26.184Z,88.43
2018-03-06T12:14:53.645Z,84.27
2018-03-06T12:17:21.156Z,80.30
2018-03-06T12:19:48.613Z,85.83
2018-03-06T12:22:16.098Z,88.80
2018-03-06T12:24:43.583Z,88.63
2018-03-06T12:27:11.063Z,81.90
2018-03-06T12:29:39.289Z,87.50
2018-03-06T12:32:06.768Z,88.60
2018-03-06T12:34:34.238Z,83.37
2018-03-06T12:37:02.505Z,82.40
2018-03-06T12:39:29.988Z,84.70
2018-03-06T12:41:57.492Z,86.33
2018-03-06T12:44:24.960Z,85.07
2018-03-06T12:46:52.453Z,76.77
2018-03-06T12:49:20.721Z,84.90
2018-03-06T12:51:48.191Z,81.50
2018-03-06T12:54:16.798Z,83.50
2018-03-06T12:56:44.290Z,85.20
2018-03-06T12:59:11.773Z,84.83
2018-03-06T13:01:40.012Z,88.53
2018-03-06T13:04:07.510Z,79.67
2018-03-06T13:06:35.738Z,84.70
2018-03-06T13:09:03.214Z,85.47
2018-03-06T13:11:30.696Z,81.57
2018-03-06T13:13:58.186Z,80.30
2018-03-06T13:16:25.667Z,84.13
2018-03-06T13:18:53.152Z,80.57
2018-03-06T13:21:21.395Z,77.00
2018-03-06T13:23:48.900Z,74.93
2018-03-06T13:26:17.162Z,74.33
2018-03-06T13:28:44.645Z,75.43
2018-03-06T13:31:12.873Z,78.97
2018-03-06T13:33:40.364Z,76.33
2018-03-06T13:36:07.933Z,84.83
2018-03-06T13:38:36.758Z,78.37
2018-03-06T13:41:04.234Z,83.53
2018-03-06T13:43:31.709Z,83.40
2018-03-06T13:45:59.193Z,77.23
2018-03-06T13:48:27.441Z,79.70
2018-03-06T13:50:54.917Z,74.53
2018-03-06T13:53:22.408Z,80.40
2018-03-06T13:55:49.914Z,73.43
2018-03-06T13:58:17.419Z,72.30
2018-03-06T14:00:44.884Z,66.47
2018-03-06T14:03:12.393Z,65.53
2018-03-06T14:05:39.869Z,68.37
2018-03-06T14:08:08.163Z,72.27
2018-03-06T14:10:36.393Z,74.87
2018-03-06T14:13:03.870Z,75.47
2018-03-06T14:15:31.355Z,75.70
2018-03-06T14:17:59.597Z,75.90
2018-03-06T14:20:28.581Z,71.93
2018-03-06T14:22:56.061Z,71.73
2018-03-06T14:25:24.306Z,74.03
2018-03-06T14:27:51.792Z,83.70
2018-03-06T14:30:20.037Z,79.97
2018-03-06T14:32:47.564Z,71.43
2018-03-06T14:35:15.122Z,67.40
2018-03-06T14:37:42.681Z,78.93
2018-03-06T14:40:10.140Z,70.57
2018-03-06T14:42:37.698Z,74.03
2018-03-06T14:45:05.212Z,71.77
2018-03-06T14:47:32.696Z,71.90
2018-03-06T14:50:00.168Z,69.07
2018-03-06T14:52:27.641Z,74.40
2018-03-06T14:54:55.113Z,71.83
2018-03-06T14:57:22.705Z,70.93
2018-03-06T14:59:50.945Z,77.17
2018-03-06T15:02:18.427Z,69.17
2018-03-06T15:04:46.681Z,65.57
2018-03-06T15:07:14.148Z,66.13
2018-03-06T15:09:41.628Z,66.13
2018-03-06T15:12:09.945Z,70.13
2018-03-06T15:14:37.465Z,71.87
2018-03-06T15:17:05.081Z,82.13
2018-03-06T15:19:32.573Z,72.37
2018-03-06T15:22:00.044Z,76.50
2018-03-06T15:24:28.307Z,76.83
2018-03-06T15:26:55.767Z,79.90
2018-03-06T15:29:23.244Z,80.73
2018-03-06T15:31:51.481Z,78.83
2018-03-06T15:34:18.999Z,77.83
2018-03-06T15:36:46.469Z,78.70
2018-03-06T15:39:14.006Z,78.60
2018-03-06T15:41:41.509Z,75.87
2018-03-06T15:44:08.992Z,71.63
2018-03-06T15:46:37.237Z,75.47
2018-03-06T15:49:04.739Z,77.03
2018-03-06T15:51:32.977Z,78.93
2018-03-06T15:54:00.469Z,72.50
2018-03-06T15:56:28.710Z,76.50
2018-03-06T15:58:56.201Z,70.67
2018-03-06T16:01:24.440Z,79.47
2018-03-06T16:03:51.921Z,68.80
2018-03-06T16:06:20.159Z,71.47
2018-03-06T16:08:47.652Z,72.00
2018-03-06T16:11:15.136Z,75.40
2018-03-06T16:13:43.413Z,69.97
2018-03-06T16:16:11.649Z,71.13
2018-03-06T16:18:39.132Z,70.73
2018-03-06T16:21:07.365Z,77.23
2018-03-06T16:23:34.850Z,73.73
2018-03-06T16:26:03.088Z,72.50
2018-03-06T16:28:30.576Z,76.27
2018-03-06T16:30:58.046Z,73.97
2018-03-06T16:33:25.606Z,73.87
2018-03-06T16:35:53.840Z,75.93
2018-03-06T16:38:21.334Z,74.33
2018-03-06T16:40:48.810Z,75.40
2018-03-06T16:43:17.066Z,72.57
2018-03-06T16:45:44.527Z,75.30
2018-03-06T16:48:12.014Z,81.17
2018-03-06T16:50:39.486Z,73.67
2018-03-06T16:53:06.977Z,76.20
2018-03-06T16:55:34.452Z,76.57
2018-03-06T16:58:01.939Z,80.40
2018-03-06T17:00:29.427Z,70.43
2018-03-06T17:02:56.928Z,76.23
2018-03-06T17:05:24.402Z,73.70
2018-03-06T17:07:52.637Z,73.10
2018-03-06T17:10:20.155Z,75.53
2018-03-06T17:12:48.370Z,77.33
2018-03-06T17:15:15.873Z,76.13
2018-03-06T17:17:43.531Z,81.27
2018-03-06T17:20:11.884Z,80.83
2018-03-06T17:22:40.133Z,70.47
2018-03-06T17:25:07.636Z,75.13
2018-03-06T17:27:35.105Z,72.53
2018-03-06T17:30:02.613Z,72.43
2018-03-06T17:32:30.094Z,76.33
2018-03-06T17:34:57.581Z,72.40
2018-03-06T17:37:25.062Z,75.73
2018-03-06T17:39:52.546Z,78.93
2018-03-06T17:42:20.008Z,77.37
2018-03-06T17:44:48.278Z,70.63
2018-03-06T17:47:15.908Z,75.10
2018-03-06T17:49:43.517Z,79.43
2018-03-06T17:52:11.785Z,75.20
2018-03-06T17:54:40.057Z,78.23
2018-03-06T17:57:08.297Z,77.97
2018-03-06T17:59:35.777Z,77.23
2018-03-06T18:02:03.309Z,85.53
2018-03-06T18:04:30.763Z,77.87
2018-03-06T18:06:58.254Z,75.17
2018-03-06T18:09:25.739Z,73.87
2018-03-06T18:11:53.226Z,82.17
2018-03-06T18:14:21.153Z,74.10
2018-03-06T18:16:49.384Z,76.17
2018-03-06T18:19:16.899Z,73.07
2018-03-06T18:21:44.373Z,87.30
2018-03-06T18:24:11.862Z,81.03
2018-03-06T18:26:39.374Z,78.23
2018-03-06T18:33:51.220Z,75.53
2018-03-06T18:36:18.691Z,79.20
2018-03-06T18:38:46.177Z,78.20
2018-03-06T18:41:13.644Z,75.33
2018-03-06T18:43:41.913Z,90.50
2018-03-06T18:46:09.384Z,79.63
2018-03-06T18:48:37.626Z,86.27
2018-03-06T18:51:15.545Z,81.97
2018-03-06T18:53:43.010Z,89.70
2018-03-06T18:56:10.497Z,81.27
2018-03-06T18:58:37.975Z,84.97
2018-03-06T19:04:17.240Z,81.07
2018-03-06T19:07:06.424Z,85.70
2018-03-06T19:09:33.934Z,78.93
2018-03-06T19:12:01.502Z,86.80
2018-03-06T19:14:29.881Z,85.47
2018-03-06T19:16:57.440Z,86.87
2018-03-06T19:19:24.904Z,87.77
2018-03-06T19:21:52.400Z,89.67
2018-03-06T19:24:20.265Z,83.63
2018-03-06T19:26:47.749Z,85.00
2018-03-06T19:29:15.981Z,93.07
2018-03-06T19:31:43.469Z,89.47
2018-03-06T19:34:11.739Z,90.93
2018-03-06T19:36:40.012Z,91.00
2018-03-06T19:39:07.477Z,89.17
2018-03-06T19:41:34.962Z,85.70
2018-03-06T19:44:02.447Z,91.90
2018-03-06T19:46:29.929Z,96.70
2018-03-06T19:48:57.446Z,91.10
2018-03-06T19:51:24.913Z,85.17
2018-03-06T19:53:52.426Z,87.00
2018-03-06T19:56:19.893Z,79.43
2018-03-06T19:58:48.163Z,79.63
2018-03-06T20:01:16.406Z,83.67
2018-03-06T20:03:43.894Z,76.97
2018-03-06T20:08:38.092Z,81.93
2018-03-06T20:11:06.340Z,76.43
2018-03-06T20:13:33.826Z,84.37
2018-03-06T20:16:02.069Z,76.03
2018-03-06T20:18:29.555Z,78.17
2018-03-06T20:20:57.013Z,82.03
2018-03-06T20:23:24.526Z,81.63
2018-03-06T20:25:57.742Z,79.83
2018-03-06T20:28:25.259Z,80.60
2018-03-06T20:30:58.362Z,82.73
2018-03-06T20:33:25.847Z,77.37
2018-03-06T20:35:53.309Z,71.67
2018-03-06T20:38:26.613Z,73.07
2018-03-06T20:40:54.088Z,74.07
2018-03-06T20:43:22.365Z,81.17
2018-03-06T20:45:55.586Z,76.37
2018-03-06T20:48:23.084Z,73.83
2018-03-06T20:50:50.557Z,74.07
2018-03-06T20:53:23.601Z,77.37
2018-03-06T20:55:51.069Z,73.90
2018-03-06T20:58:18.833Z,73.80
2018-03-06T21:00:46.296Z,74.13
2018-03-06T21:03:14.165Z,69.33
2018-03-06T21:05:41.635Z,76.30
2018-03-06T21:08:09.137Z,77.93
2018-03-06T21:10:36.597Z,92.73
2018-03-06T21:13:04.137Z,87.87
2018-03-06T21:15:31.602Z,94.10
2018-03-06T21:17:59.069Z,76.60
2018-03-06T21:20:26.561Z,77.67
2018-03-06T21:22:54.049Z,82.97
2018-03-06T21:25:21.530Z,79.80
2018-03-06T21:27:49.012Z,76.23
2018-03-06T21:30:16.521Z,75.70
2018-03-06T21:32:43.999Z,75.63
2018-03-06T21:35:12.259Z,73.03
2018-03-06T21:37:40.489Z,77.33
2018-03-06T21:40:08.006Z,71.33
2018-03-06T21:42:36.236Z,76.03
2018-03-06T21:45:03.837Z,70.10
2018-03-06T21:47:32.061Z,65.37
2018-03-06T21:49:59.527Z,65.43
2018-03-06T21:52:27.017Z,72.70
2018-03-06T21:54:54.511Z,66.43
2018-03-06T21:57:22.021Z,68.77
2018-03-06T21:59:49.488Z,66.30
2018-03-06T22:02:16.969Z,60.63
2018-03-06T22:04:44.454Z,54.40
2018-03-06T22:07:11.951Z,53.43
2018-03-06T22:09:40.176Z,56.20
2018-03-06T22:12:07.654Z,46.63
2018-03-06T22:14:35.121Z,41.03
2018-03-06T22:17:02.617Z,34.63
2018-03-06T22:19:30.177Z,29.70
2018-03-06T22:21:57.645Z,31.27
2018-03-06T22:24:25.891Z,31.00
2018-03-06T22:26:53.355Z,34.67
2018-03-06T22:29:20.837Z,33.13
2018-03-06T22:31:49.277Z,29.50
2018-03-06T22:34:16.756Z,25.47
2018-03-06T22:36:44.220Z,26.17
2018-03-06T22:39:11.701Z,31.57
2018-03-06T22:41:39.951Z,27.07
2018-03-06T22:44:07.432Z,28.00
2018-03-06T22:46:35.665Z,28.47
2018-03-06T22:49:03.148Z,30.07
2018-03-06T22:51:30.622Z,26.10
2018-03-06T22:53:58.988Z,26.27
2018-03-06T22:56:26.455Z,25.20
2018-03-06T22:58:54.699Z,26.87
2018-03-06T23:01:22.931Z,26.07
2018-03-06T23:03:50.423Z,27.10
2018-03-06T23:06:17.898Z,24.07
2018-03-06T23:08:46.148Z,26.43
2018-03-06T23:11:13.634Z,25.10
2018-03-06T23:13:41.869Z,20.97
2018-03-06T23:16:09.353Z,24.33
2018-03-06T23:18:36.813Z,24.70
2018-03-06T23:21:04.301Z,21.57
2018-03-06T23:23:31.802Z,20.73
2018-03-06T23:25:59.295Z,23.13
2018-03-06T23:28:27.532Z,21.37
2018-03-06T23:30:55.021Z,24.23
2018-03-06T23:33:22.482Z,22.40
2018-03-06T23:35:49.961Z,22.57
2018-03-06T23:38:17.425Z,23.67
2018-03-06T23:40:44.904Z,17.60
2018-03-06T23:43:12.363Z,20.33
2018-03-06T23:45:39.867Z,21.73
2018-03-06T23:48:07.417Z,22.33
2018-03-06T23:50:34.904Z,23.50
2018-03-06T23:53:03.134Z,23.70
2018-03-06T23:55:30.609Z,22.33
2018-03-06T23:57:58.071Z,21.73
